USTRANSCOM 7615


PHNL
Daniel K Inouye International Airport
Honolulu, Hawaii, US
YBAS
Alice Springs Airport
Alice Springs, , AU

Route Details

Aircraft Information
Primary: Boeing 747-400BCF
Backup: Boeing 777-200LRF
Route Data
Distance: 4813nm
Sched. Duration: 11h 05m
Avg. Duration: 10h 99m (-6m)
Times Flown: 3
Recm'd Route: NDJ A222 UKS TASAK B589 TEDED B589A KAPKI KAPSO R210 CS J64 AS
Planned Altitude: 32,000ft
Origin Wx: PHNL 221753Z 01004KT 10SM FEW025 SCT040 BKN110 26/22 A2993 RMK AO2 SLP133 T02560217 10256 20233 53011
Dest. Wx: YBAS 221800Z AUTO 33017KT 9999 // NCD 26/15 Q1005
Notes: USTRANSCOM CONTRACT FLIGHT

Financial History
Total Freight: 542,070lbs
Average Load: 180,690lbs/flt
Fuel Used: 592,259lbs
Avg. Fuel Used: 197,420lbs/flt
Fuel Expense: $408,659
Avg. Fuel Expense: $136,220
Avg. Fuel Cost: $0.69/lbs
Total Gross Income: $4,967,168
Pilot Pay: $627
Total Expenses: $536,610
Total Revenue: $4,013,192
Average Revenue: $1,655,722.71